sensor_id;sensor_type;location;lat;lon;timestamp;pressure;altitude;pressure_sealevel;temperature
77385;BMP280;66444;49.680;18.538;2023-02-13T00:03:33;99455.37537558169;;;3.9450281883124263
77385;BMP280;66444;49.680;18.538;2023-02-13T00:08:37;99463.0314050061;;;3.96031221114099
77385;BMP280;66444;49.680;18.538;2023-02-13T00:13:40;99464.31239702163;;;3.9348388106562195
77385;BMP280;66444;49.680;18.538;2023-02-13T00:18:43;99466.70313237605;;;3.9501228684093803
77385;BMP280;66444;49.680;18.538;2023-02-13T00:23:46;99467.18689088544;;;3.9195547005161644
77385;BMP280;66444;49.680;18.538;2023-02-13T00:28:50;99460.88284362394;;;3.9297441130969673
77385;BMP280;66444;49.680;18.538;2023-02-13T00:33:53;99463.34371076454;;;3.9959747273474933
77385;BMP280;66444;49.680;18.538;2023-02-13T00:38:56;99455.75625176259;;;4.031636958336458
77385;BMP280;66444;49.680;18.538;2023-02-13T00:43:59;99450.55733446566;;;4.082582507841289
77385;BMP280;66444;49.680;18.538;2023-02-13T00:49:03;99460.05068376925;;;4.092771547893062
77385;BMP280;66444;49.680;18.538;2023-02-13T00:54:07;99452.15065214831;;;4.092771547893062
77385;BMP280;66444;49.680;18.538;2023-02-13T00:59:10;99451.72903299824;;;4.17428303011693
77385;BMP280;66444;49.680;18.538;2023-02-13T01:04:13;99441.87124462989;;;4.2965474594850095
77385;BMP280;66444;49.680;18.538;2023-02-13T01:09:17;99456.69704034315;;;4.357678416883573
77385;BMP280;66444;49.680;18.538;2023-02-13T01:14:20;99443.21045526872;;;4.102960564661771
77385;BMP280;66444;49.680;18.538;2023-02-13T01:19:23;99440.51112333548;;;4.052015247987583
77385;BMP280;66444;49.680;18.538;2023-02-13T01:24:27;99443.14427844953;;;4.052015247987583
77385;BMP280;66444;49.680;18.538;2023-02-13T01:29:30;99447.78889217318;;;3.980690826755017
77385;BMP280;66444;49.680;18.538;2023-02-13T01:34:33;99443.00858566836;;;3.9501228684093803
77385;BMP280;66444;49.680;18.538;2023-02-13T01:39:37;99443.56264129834;;;3.970501530589536
77385;BMP280;66444;49.680;18.538;2023-02-13T01:44:44;99446.88397634454;;;4.092771547893062
77385;BMP280;66444;49.680;18.538;2023-02-13T01:49:52;99421.96223747058;;;4.169188606133685
77385;BMP280;66444;49.680;18.538;2023-02-13T01:55:05;99421.96223747058;;;4.169188606133685
77385;BMP280;66444;49.680;18.538;2023-02-13T02:00:12;99411.61011364628;;;4.102960564661771
77385;BMP280;66444;49.680;18.538;2023-02-13T02:05:17;99409.70977454948;;;4.05710980584845
77385;BMP280;66444;49.680;18.538;2023-02-13T02:10:26;99414.30610764275;;;4.15390529925935
77385;BMP280;66444;49.680;18.538;2023-02-13T02:15:29;99420.48623166831;;;4.041826114803553
77385;BMP280;66444;49.680;18.538;2023-02-13T02:20:40;99429.2224583664;;;3.8787968173623084
77385;BMP280;66444;49.680;18.538;2023-02-13T02:28:16;99422.36445281761;;;3.8686072883661837
77385;BMP280;66444;49.680;18.538;2023-02-13T02:33:33;99419.3142323555;;;3.9501228684093803
77385;BMP280;66444;49.680;18.538;2023-02-13T02:38:49;99407.8088118988;;;4.011258575553074
77385;BMP280;66444;49.680;18.538;2023-02-13T02:44:07;99407.01246067244;;;4.006163965305314
77385;BMP280;66444;49.680;18.538;2023-02-13T02:49:18;99384.66396652906;;;4.031636958336458
77385;BMP280;66444;49.680;18.538;2023-02-13T02:54:24;99380.50034637979;;;4.072393444506451
77385;BMP280;66444;49.680;18.538;2023-02-13T02:59:34;99382.7034434559;;;4.15390529925935
77385;BMP280;66444;49.680;18.538;2023-02-13T03:04:39;99401.19872160854;;;4.204849451780319
77385;BMP280;66444;49.680;18.538;2023-02-13T03:09:48;99407.7435771619;;;3.96031221114099
77385;BMP280;66444;49.680;18.538;2023-02-13T03:14:55;99418.06949345271;;;3.8074696254450826
77385;BMP280;66444;49.680;18.538;2023-02-13T03:20:03;99415.921732076;;;3.7769004796631633
77385;BMP280;66444;49.680;18.538;2023-02-13T03:25:20;99422.84928079958;;;3.838038561679423
77385;BMP280;66444;49.680;18.538;2023-02-13T03:30:34;99432.40910188039;;;3.899175805505365
77385;BMP280;66444;49.680;18.538;2023-02-13T03:35:52;99429.8450321742;;;3.9501228684093803
77385;BMP280;66444;49.680;18.538;2023-02-13T03:41:04;99414.6675136417;;;4.021447778586298
77385;BMP280;66444;49.680;18.538;2023-02-13T03:46:15;99414.48777998485;;;4.0876770307775585
77385;BMP280;66444;49.680;18.538;2023-02-13T03:51:22;99416.3879693027;;;4.133527475269512
77385;BMP280;66444;49.680;18.538;2023-02-13T03:56:31;99415.89867169717;;;4.164094176329672
77385;BMP280;66444;49.680;18.538;2023-02-13T04:01:43;99412.53006375249;;;4.209943835018203
77385;BMP280;66444;49.680;18.538;2023-02-13T04:06:53;99418.59394860938;;;4.21503821243532
77385;BMP280;66444;49.680;18.538;2023-02-13T04:12:02;99414.12249607363;;;4.2201325840316715
77385;BMP280;66444;49.680;18.538;2023-02-13T04:17:12;99414.42805706477;;;4.25579302222468
77385;BMP280;66444;49.680;18.538;2023-02-13T04:22:22;99408.36390080462;;;4.250698691373691
77385;BMP280;66444;49.680;18.538;2023-02-13T04:27:26;99408.97291992334;;;4.322018793597818
77385;BMP280;66444;49.680;18.538;2023-02-13T04:32:30;99411.9679567225;;;4.408620241098106
77385;BMP280;66444;49.680;18.538;2023-02-13T04:37:33;99423.11259327007;;;4.479937817109748
77385;BMP280;66444;49.680;18.538;2023-02-13T04:42:37;99430.2772358363;;;4.5257842278108
77385;BMP280;66444;49.680;18.538;2023-02-13T04:47:40;99432.17127966988;;;4.571630167029798
77385;BMP280;66444;49.680;18.538;2023-02-13T04:52:44;99437.99100345517;;;4.592005988676101
77385;BMP280;66444;49.680;18.538;2023-02-13T04:57:50;99444.35978021196;;;4.632757352571934
77385;BMP280;66444;49.680;18.538;2023-02-13T05:02:54;99439.14153290093;;;4.683696033572778
77385;BMP280;66444;49.680;18.538;2023-02-13T05:08:05;99433.37362520867;;;4.714258962776512
77385;BMP280;66444;49.680;18.538;2023-02-13T05:13:09;99432.08110982784;;;4.739727910375223
77385;BMP280;66444;49.680;18.538;2023-02-13T05:18:11;99421.2879520582;;;4.755009209085256
77385;BMP280;66444;49.680;18.538;2023-02-13T05:23:13;99425.01804721061;;;4.79575908286497
77385;BMP280;66444;49.680;18.538;2023-02-13T05:28:16;99415.56531381655;;;4.836508584115654
77385;BMP280;66444;49.680;18.538;2023-02-13T05:33:18;99425.61270543284;;;4.867070465581492
77385;BMP280;66444;49.680;18.538;2023-02-13T05:38:21;99417.7488788748;;;4.918006469029933
77385;BMP280;66444;49.680;18.538;2023-02-13T05:43:24;99421.97703704979;;;4.928193599870428
77385;BMP280;66444;49.680;18.538;2023-02-13T05:48:27;99425.70517628355;;;4.968941890401766
77385;BMP280;66444;49.680;18.538;2023-02-13T05:53:29;99424.40899239248;;;4.9944093828089535
77385;BMP280;66444;49.680;18.538;2023-02-13T05:58:32;99419.4288538761;;;5.0300636277068405
77385;BMP280;66444;49.680;18.538;2023-02-13T06:03:34;99418.9271046613;;;5.060624182038009
77385;BMP280;66444;49.680;18.538;2023-02-13T06:08:39;99418.67605936757;;;5.0759043806232516
77385;BMP280;66444;49.680;18.538;2023-02-13T06:13:42;99416.33137449803;;;5.111557973595336
77385;BMP280;66444;49.680;18.538;2023-02-13T06:18:44;99423.7418412869;;;5.1421179691329595
77385;BMP280;66444;49.680;18.538;2023-02-13T06:23:47;99425.58419674748;;;5.137024651095271
77385;BMP280;66444;49.680;18.538;2023-02-13T06:28:49;99430.6494904701;;;5.20323733156547
77385;BMP280;66444;49.680;18.538;2023-02-13T06:33:52;99435.42235594516;;;5.233796698460355
77385;BMP280;66444;49.680;18.538;2023-02-13T06:38:54;99422.01703622691;;;5.300007941201329
77385;BMP280;66444;49.680;18.538;2023-02-13T06:43:57;99419.66821694172;;;5.335659741377458
77385;BMP280;66444;49.680;18.538;2023-02-13T06:49:00;99420.46347416083;;;5.340752832405269
77385;BMP280;66444;49.680;18.538;2023-02-13T06:54:02;99401.73921212282;;;5.3560320705641065
77385;BMP280;66444;49.680;18.538;2023-02-13T06:59:05;99398.11768952844;;;5.468078216351569
77385;BMP280;66444;49.680;18.538;2023-02-13T07:04:08;99403.71333600917;;;5.554657399421558
77385;BMP280;66444;49.680;18.538;2023-02-13T07:09:10;99397.69698766111;;;5.651420378033071
77385;BMP280;66444;49.680;18.538;2023-02-13T07:14:13;99397.21187069039;;;5.732903361786157
77385;BMP280;66444;49.680;18.538;2023-02-13T07:19:15;99399.41079834658;;;5.916234626993537
77385;BMP280;66444;49.680;18.538;2023-02-13T07:24:18;99408.46927520554;;;6.109742778493091
77385;BMP280;66444;49.680;18.538;2023-02-13T07:29:21;99412.20017046313;;;6.201401600800454
77385;BMP280;66444;49.680;18.538;2023-02-13T07:34:24;99419.64043460175;;;6.333794347988442
77385;BMP280;66444;49.680;18.538;2023-02-13T07:39:26;99415.95648626825;;;6.394897365709767
77385;BMP280;66444;49.680;18.538;2023-02-13T07:44:29;99418.09048495737;;;6.476366752153263
77385;BMP280;66444;49.680;18.538;2023-02-13T07:49:31;99419.17519371452;;;6.618934592837467
77385;BMP280;66444;49.680;18.538;2023-02-13T07:54:35;99422.37040147602;;;6.7920465500094
77385;BMP280;66444;49.680;18.538;2023-02-13T07:59:38;99412.85486417812;;;6.9855166569817815
77385;BMP280;66444;49.680;18.538;2023-02-13T08:04:41;99412.31138589414;;;7.219706067070365
77385;BMP280;66444;49.680;18.538;2023-02-13T08:09:44;99408.3225568497;;;7.346977754449472
77385;BMP280;66444;49.680;18.538;2023-02-13T08:14:48;99414.40160489967;;;7.402976144384593
77385;BMP280;66444;49.680;18.538;2023-02-13T08:19:50;99408.03440706962;;;7.464064493775368
77385;BMP280;66444;49.680;18.538;2023-02-13T08:24:53;99417.80920188755;;;7.5607859994284805
77385;BMP280;66444;49.680;18.538;2023-02-13T08:29:56;99417.78131832642;;;7.662595840543508
77385;BMP280;66444;49.680;18.538;2023-02-13T08:34:59;99421.20771659185;;;7.718590260716155
77385;BMP280;66444;49.680;18.538;2023-02-13T08:40:02;99419.08196678494;;;7.73895169342868
77385;BMP280;66444;49.680;18.538;2023-02-13T08:45:05;99407.42258585902;;;7.749132374860347
77385;BMP280;66444;49.680;18.538;2023-02-13T08:50:09;99406.8626845179;;;7.830576988123357
77385;BMP280;66444;49.680;18.538;2023-02-13T08:55:12;99417.96296343865;;;7.901839802367613
77385;BMP280;66444;49.680;18.538;2023-02-13T09:00:15;99411.59934084557;;;7.912020111270249
77385;BMP280;66444;49.680;18.538;2023-02-13T09:05:18;99413.20565044445;;;7.871298735961318
77385;BMP280;66444;49.680;18.538;2023-02-13T09:10:21;99414.82950634045;;;7.779674279456958
77385;BMP280;66444;49.680;18.538;2023-02-13T09:15:24;99418.55874564493;;;7.718590260716155
77385;BMP280;66444;49.680;18.538;2023-02-13T09:20:28;99420.1099313788;;;7.830576988123357
77385;BMP280;66444;49.680;18.538;2023-02-13T09:25:31;99415.83484724403;;;7.922200396889821
77385;BMP280;66444;49.680;18.538;2023-02-13T09:30:34;99413.66089767819;;;8.044362008245661
77385;BMP280;66444;49.680;18.538;2023-02-13T09:35:36;99409.34798747672;;;8.186879650643096
77385;BMP280;66444;49.680;18.538;2023-02-13T09:40:41;99403.98804649779;;;8.288675172673539
77385;BMP280;66444;49.680;18.538;2023-02-13T09:45:49;99404.26471476177;;;8.665298359561712
77385;BMP280;66444;49.680;18.538;2023-02-13T09:50:55;99412.06355081248;;;8.868865189235658
77385;BMP280;66444;49.680;18.538;2023-02-13T09:56:01;99418.91284504907;;;8.92993342205882
77385;BMP280;66444;49.680;18.538;2023-02-13T10:01:17;99415.82870608024;;;8.807796118222177
77385;BMP280;66444;49.680;18.538;2023-02-13T10:06:28;99413.76968414016;;;8.726369386352598
77385;BMP280;66444;49.680;18.538;2023-02-13T10:11:41;99416.85733838494;;;8.848508925363422
77385;BMP280;66444;49.680;18.538;2023-02-13T10:17:03;99411.22873016658;;;8.914666442433372
77385;BMP280;66444;49.680;18.538;2023-02-13T10:22:13;99402.89642007725;;;9.031711947452276
77385;BMP280;66444;49.680;18.538;2023-02-13T10:27:20;99401.31299085765;;;9.021534199686721
77385;BMP280;66444;49.680;18.538;2023-02-13T10:32:26;99396.65319850344;;;8.889221359975636
77385;BMP280;66444;49.680;18.538;2023-02-13T10:37:36;99404.01343950558;;;8.970645111612976
77385;BMP280;66444;49.680;18.538;2023-02-13T10:42:40;99400.02757730866;;;8.655119773605838
77385;BMP280;66444;49.680;18.538;2023-02-13T10:47:50;99403.95735983855;;;8.339572060573847
77385;BMP280;66444;49.680;18.538;2023-02-13T10:53:10;99397.64879641907;;;8.247957243258133
77385;BMP280;66444;49.680;18.538;2023-02-13T10:58:19;99395.60176003957;;;8.115621399879455
77385;BMP280;66444;49.680;18.538;2023-02-13T11:03:31;99392.45798234643;;;8.044362008245661
77385;BMP280;66444;49.680;18.538;2023-02-13T11:08:34;99387.75124010985;;;7.912020111270249
77385;BMP280;66444;49.680;18.538;2023-02-13T11:13:41;99377.40007412879;;;7.947651009075344
77385;BMP280;66444;49.680;18.538;2023-02-13T11:18:47;99379.28139473956;;;7.891659470181912
77385;BMP280;66444;49.680;18.538;2023-02-13T11:23:52;99373.35894636069;;;8.074901887215674
77385;BMP280;66444;49.680;18.538;2023-02-13T11:28:57;99377.40703753254;;;8.390468366397545
77385;BMP280;66444;49.680;18.538;2023-02-13T11:34:17;99363.00569110572;;;8.502438190300017
77385;BMP280;66444;49.680;18.538;2023-02-13T11:39:26;99358.88516477909;;;8.680566194839775
77385;BMP280;66444;49.680;18.538;2023-02-13T11:44:30;99361.72994007848;;;8.767082938551903
77385;BMP280;66444;49.680;18.538;2023-02-13T11:49:34;99364.5104194737;;;8.614405196951703
77385;BMP280;66444;49.680;18.538;2023-02-13T11:54:39;99365.14268751306;;;8.482080250047147
77385;BMP280;66444;49.680;18.538;2023-02-13T11:59:45;99352.98805713348;;;8.42100587049499
77385;BMP280;66444;49.680;18.538;2023-02-13T12:04:50;99344.39920342602;;;8.553332633478567
77385;BMP280;66444;49.680;18.538;2023-02-13T12:09:57;99334.96245115409;;;8.731458600750193
77385;BMP280;66444;49.680;18.538;2023-02-13T12:15:09;99327.74701428683;;;8.787439574953169
77385;BMP280;66444;49.680;18.538;2023-02-13T12:20:18;99309.221013682;;;8.736547809327021
77385;BMP280;66444;49.680;18.538;2023-02-13T12:25:40;99310.24367556623;;;8.777261268394067
77385;BMP280;66444;49.680;18.538;2023-02-13T12:30:59;99301.67204388804;;;8.858687068941071
77385;BMP280;66444;49.680;18.538;2023-02-13T12:36:22;99301.44230192476;;;8.82306346455589
77385;BMP280;66444;49.680;18.538;2023-02-13T12:41:33;99309.35973233878;;;8.583869019988924
77385;BMP280;66444;49.680;18.538;2023-02-13T12:46:49;99299.59188994218;;;8.197059307619929
77385;BMP280;66444;49.680;18.538;2023-02-13T12:52:02;99304.90190675548;;;7.75422270684503
77385;BMP280;66444;49.680;18.538;2023-02-13T12:57:23;99313.50541832026;;;7.469155151722953
77385;BMP280;66444;49.680;18.538;2023-02-13T13:02:47;99318.04423967321;;;7.362250112462789
77385;BMP280;66444;49.680;18.538;2023-02-13T13:08:09;99316.99837597023;;;7.321523708011955
77385;BMP280;66444;49.680;18.538;2023-02-13T13:13:25;99316.98192422515;;;7.372431655367836
77385;BMP280;66444;49.680;18.538;2023-02-13T13:18:41;99316.92579200688;;;7.525152004975825
77385;BMP280;66444;49.680;18.538;2023-02-13T13:23:58;99311.53728988962;;;7.72877098871395
77385;BMP280;66444;49.680;18.538;2023-02-13T13:29:09;99323.58038349454;;;7.993461744301021
77385;BMP280;66444;49.680;18.538;2023-02-13T13:34:19;99315.04920552629;;;8.074901887215674
77385;BMP280;66444;49.680;18.538;2023-02-13T13:39:35;99303.4462682787;;;7.9832816216629
77385;BMP280;66444;49.680;18.538;2023-02-13T13:44:51;99312.4926245922;;;7.922200396889821
77385;BMP280;66444;49.680;18.538;2023-02-13T13:50:11;99315.71778650142;;;7.840757460007444
77385;BMP280;66444;49.680;18.538;2023-02-13T13:55:58;99317.379637801;;;7.698228734871373
77385;BMP280;66444;49.680;18.538;2023-02-13T14:01:21;99319.55308335903;;;7.57605762402527
77385;BMP280;66444;49.680;18.538;2023-02-13T14:12:59;99337.4088979147;;;7.214615123905242
77385;BMP280;66444;49.680;18.538;2023-02-13T14:18:03;99329.22371419545;;;7.12806819952093
77385;BMP280;66444;49.680;18.538;2023-02-13T14:23:23;99311.24657813337;;;7.04661073400639
77385;BMP280;66444;49.680;18.538;2023-02-13T14:28:31;99312.83210695969;;;7.056792998686433
77385;BMP280;66444;49.680;18.538;2023-02-13T14:33:34;99313.88192452861;;;7.097521824575961
77385;BMP280;66444;49.680;18.538;2023-02-13T14:38:37;99317.58874481707;;;7.087339653028176
77385;BMP280;66444;49.680;18.538;2023-02-13T14:43:46;99319.98642152117;;;7.000790254818275
77385;BMP280;66444;49.680;18.538;2023-02-13T14:48:55;99315.7630366018;;;6.939695549150929
77385;BMP280;66444;49.680;18.538;2023-02-13T14:54:03;99311.80530694738;;;6.863325988361612
77385;BMP280;66444;49.680;18.538;2023-02-13T14:59:21;99316.0462470209;;;6.771680786646902
77385;BMP280;66444;49.680;18.538;2023-02-13T15:04:29;99314.99108023393;;;6.730948980525136
77385;BMP280;66444;49.680;18.538;2023-02-13T15:09:37;99308.6464805055;;;6.69021680187434
77385;BMP280;66444;49.680;18.538;2023-02-13T15:14:42;99309.70473215457;;;6.68003369900398
77385;BMP280;66444;49.680;18.538;2023-02-13T15:19:46;99306.00432383649;;;6.639301054691896
77385;BMP280;66444;49.680;18.538;2023-02-13T15:24:51;99295.95769524357;;;6.608751326985657
77385;BMP280;66444;49.680;18.538;2023-02-13T15:29:57;99308.64924246159;;;6.537467814097181
77385;BMP280;66444;49.680;18.538;2023-02-13T15:35:07;99295.1629315858;;;6.399989246018231
77385;BMP280;66444;49.680;18.538;2023-02-13T15:40:24;99313.37753871677;;;6.2115857979748395
77385;BMP280;66444;49.680;18.538;2023-02-13T15:45:36;99295.92009203324;;;6.099558348488062
77385;BMP280;66444;49.680;18.538;2023-02-13T15:50:44;99297.23613711292;;;6.074097171612084
77385;BMP280;66444;49.680;18.538;2023-02-13T15:55:54;99300.66065780305;;;6.028266686527059
77385;BMP280;66444;49.680;18.538;2023-02-13T16:01:01;99292.46409991203;;;5.992620427720249
77385;BMP280;66444;49.680;18.538;2023-02-13T16:06:08;99294.31191129948;;;5.987528081750497
77385;BMP280;66444;49.680;18.538;2023-02-13T16:11:22;99294.8329265356;;;5.9569738836959
77385;BMP280;66444;49.680;18.538;2023-02-13T16:16:30;99290.0712646604;;;5.9264194760937245
77385;BMP280;66444;49.680;18.538;2023-02-13T16:21:38;99293.2326067746;;;5.895864858943969
77385;BMP280;66444;49.680;18.538;2023-02-13T16:26:41;99287.41710268227;;;5.875494997762144
77385;BMP280;66444;49.680;18.538;2023-02-13T16:31:45;99302.1938609442;;;5.83475499600172
77385;BMP280;66444;49.680;18.538;2023-02-13T16:36:50;99304.02419902869;;;5.778736885311082
77385;BMP280;66444;49.680;18.538;2023-02-13T16:41:56;99297.39686220833;;;5.702347417501732
77385;BMP280;66444;49.680;18.538;2023-02-13T16:47:01;99298.44922783354;;;5.692162056174129
77385;BMP280;66444;49.680;18.538;2023-02-13T16:52:07;99311.13333196499;;;5.722718070307747
77385;BMP280;66444;49.680;18.538;2023-02-13T16:57:16;99309.02855941048;;;5.743088629981503
77385;BMP280;66444;49.680;18.538;2023-02-13T17:02:22;99322.76602727536;;;5.763459096523002
77385;BMP280;66444;49.680;18.538;2023-02-13T17:07:27;99310.61643111854;;;5.753273874893784
77385;BMP280;66444;49.680;18.538;2023-02-13T17:12:36;99311.92730335737;;;5.727810718957334
77385;BMP280;66444;49.680;18.538;2023-02-13T17:17:45;99310.06177576951;;;5.681976671563461
77385;BMP280;66444;49.680;18.538;2023-02-13T17:22:49;99310.57769944608;;;5.651420378033071
77385;BMP280;66444;49.680;18.538;2023-02-13T17:27:55;99321.93159621868;;;5.656513108173385
77385;BMP280;66444;49.680;18.538;2023-02-13T17:33:02;99310.33936277103;;;5.717625415837392
77385;BMP280;66444;49.680;18.538;2023-02-13T17:38:08;99305.0769254883;;;5.768551698606461
77385;BMP280;66444;49.680;18.538;2023-02-13T17:43:12;99310.37513468423;;;5.819477399298921
77385;BMP280;66444;49.680;18.538;2023-02-13T17:48:16;99290.04359175223;;;5.824569937353954
77385;BMP280;66444;49.680;18.538;2023-02-13T17:53:21;99280.2745459741;;;5.82966246958822
77385;BMP280;66444;49.680;18.538;2023-02-13T17:58:26;99273.67945217103;;;5.85512504344806
77385;BMP280;66444;49.680;18.538;2023-02-13T18:03:29;99264.95078067467;;;5.7991071888711305
77385;BMP280;66444;49.680;18.538;2023-02-13T18:08:32;99282.10673934774;;;5.773644294869155
77385;BMP280;66444;49.680;18.538;2023-02-13T18:13:36;99282.62534694851;;;5.743088629981503
77385;BMP280;66444;49.680;18.538;2023-02-13T18:18:39;99270.47690227821;;;5.732903361786157
77385;BMP280;66444;49.680;18.538;2023-02-13T18:23:42;99266.26413827471;;;5.773644294869155
77385;BMP280;66444;49.680;18.538;2023-02-13T18:28:45;99273.13216690258;;;5.783829469932243
77385;BMP280;66444;49.680;18.538;2023-02-13T18:33:48;99285.26565738731;;;5.743088629981503
77385;BMP280;66444;49.680;18.538;2023-02-13T18:38:51;99279.98503891137;;;5.743088629981503
77385;BMP280;66444;49.680;18.538;2023-02-13T18:43:55;99279.46629983085;;;5.773644294869155
77385;BMP280;66444;49.680;18.538;2023-02-13T18:48:58;99276.84028247347;;;5.824569937353954
77385;BMP280;66444;49.680;18.538;2023-02-13T18:54:06;99278.96102683699;;;5.85512504344806
77385;BMP280;66444;49.680;18.538;2023-02-13T18:59:10;99275.2665118533;;;5.865310032246635
77385;BMP280;66444;49.680;18.538;2023-02-13T19:04:13;99273.67945217103;;;5.85512504344806
77385;BMP280;66444;49.680;18.538;2023-02-13T19:09:16;99262.84356528187;;;5.819477399298921
77385;BMP280;66444;49.680;18.538;2023-02-13T19:14:19;99253.59524802778;;;5.794014621712267
77385;BMP280;66444;49.680;18.538;2023-02-13T19:19:22;99280.51939520634;;;5.763459096523002
77385;BMP280;66444;49.680;18.538;2023-02-13T19:24:26;99275.23860943023;;;5.763459096523002
77385;BMP280;66444;49.680;18.538;2023-02-13T19:29:29;99281.31306617918;;;5.768551698606461
77385;BMP280;66444;49.680;18.538;2023-02-13T19:34:32;99295.8435994893;;;5.794014621712267
77385;BMP280;66444;49.680;18.538;2023-02-13T19:39:36;99289.52420499924;;;5.85512504344806
77385;BMP280;66444;49.680;18.538;2023-02-13T19:44:39;99293.2326067746;;;5.895864858943969
77385;BMP280;66444;49.680;18.538;2023-02-13T19:49:42;99305.90335935261;;;5.875494997762144
77385;BMP280;66444;49.680;18.538;2023-02-13T19:54:46;99307.49093630037;;;5.8856799399945885
77385;BMP280;66444;49.680;18.538;2023-02-13T19:59:49;99322.00790774619;;;5.860217540757731
77385;BMP280;66444;49.680;18.538;2023-02-13T20:04:52;99320.6789801051;;;5.83475499600172
77385;BMP280;66444;49.680;18.538;2023-02-13T20:09:56;99332.29458502843;;;5.824569937353954
77385;BMP280;66444;49.680;18.538;2023-02-13T20:14:59;99328.04689951651;;;5.763459096523002
77385;BMP280;66444;49.680;18.538;2023-02-13T20:20:03;99328.04689951651;;;5.763459096523002
77385;BMP280;66444;49.680;18.538;2023-02-13T20:25:13;99325.9421780597;;;5.783829469932243
77385;BMP280;66444;49.680;18.538;2023-02-13T20:30:17;99332.81141144794;;;5.794014621712267
77385;BMP280;66444;49.680;18.538;2023-02-13T20:35:25;99323.83713791134;;;5.804199750209227
77385;BMP280;66444;49.680;18.538;2023-02-13T20:40:29;99325.9604643438;;;5.83475499600172
77385;BMP280;66444;49.680;18.538;2023-02-13T20:45:32;99322.80184755653;;;5.865310032246635
77385;BMP280;66444;49.680;18.538;2023-02-13T20:50:35;99314.87923754734;;;5.865310032246635
77385;BMP280;66444;49.680;18.538;2023-02-13T20:55:39;99324.38973375461;;;5.875494997762144
77385;BMP280;66444;49.680;18.538;2023-02-13T21:00:43;99335.74746637976;;;5.880587471788749
77385;BMP280;66444;49.680;18.538;2023-02-13T21:05:48;99329.67157663652;;;5.875494997762144
77385;BMP280;66444;49.680;18.538;2023-02-13T21:10:53;99340.23529123256;;;5.875494997762144
77385;BMP280;66444;49.680;18.538;2023-02-13T21:16:04;99343.41163511554;;;5.895864858943969
77385;BMP280;66444;49.680;18.538;2023-02-13T21:21:11;99344.98152101434;;;5.85512504344806
77385;BMP280;66444;49.680;18.538;2023-02-13T21:26:16;99339.68084494783;;;5.804199750209227
77385;BMP280;66444;49.680;18.538;2023-02-13T21:31:22;99331.22323201869;;;5.783829469932243
77385;BMP280;66444;49.680;18.538;2023-02-13T21:36:34;99327.76896607672;;;5.727810718957334
77385;BMP280;66444;49.680;18.538;2023-02-13T21:41:41;99331.18241495735;;;5.681976671563461
77385;BMP280;66444;49.680;18.538;2023-02-13T21:46:47;99326.97485839957;;;5.722718070307747
77385;BMP280;66444;49.680;18.538;2023-02-13T21:51:51;99328.82099301796;;;5.717625415837392
77385;BMP280;66444;49.680;18.538;2023-02-13T21:57:01;99320.10622208074;;;5.712532755546272
77385;BMP280;66444;49.680;18.538;2023-02-13T22:02:11;99321.65241541834;;;5.620863874955103
77385;BMP280;66444;49.680;18.538;2023-02-13T22:07:16;99322.68092986489;;;5.559750240156427
77385;BMP280;66444;49.680;18.538;2023-02-13T22:12:21;99326.8847663085;;;5.519007351296023
77385;BMP280;66444;49.680;18.538;2023-02-13T22:17:41;99322.1190599814;;;5.488449940178543
77385;BMP280;66444;49.680;18.538;2023-02-13T22:22:45;99321.32478332277;;;5.483357017952949
77385;BMP280;66444;49.680;18.538;2023-02-13T22:27:51;99311.56209670407;;;5.488449940178543
77385;BMP280;66444;49.680;18.538;2023-02-13T22:33:00;99301.51882026218;;;5.457892319513485